sensor_id;sensor_type;location;lat;lon;timestamp;P1;durP1;ratioP1;P2;durP2;ratioP2
42700;SDS011;28316;49.504;8.526;2023-03-03T00:01:34;25.00;;;9.88;;
42700;SDS011;28316;49.504;8.526;2023-03-03T00:04:00;33.22;;;11.07;;
42700;SDS011;28316;49.504;8.526;2023-03-03T00:06:25;18.98;;;8.85;;
42700;SDS011;28316;49.504;8.526;2023-03-03T00:08:53;22.30;;;8.68;;
42700;SDS011;28316;49.504;8.526;2023-03-03T00:11:19;16.63;;;7.95;;
42700;SDS011;28316;49.504;8.526;2023-03-03T00:13:47;18.55;;;8.30;;
42700;SDS011;28316;49.504;8.526;2023-03-03T00:16:30;29.17;;;8.63;;
42700;SDS011;28316;49.504;8.526;2023-03-03T00:19:02;21.63;;;7.72;;
42700;SDS011;28316;49.504;8.526;2023-03-03T00:21:44;31.53;;;9.53;;
42700;SDS011;28316;49.504;8.526;2023-03-03T00:24:21;15.73;;;8.82;;
42700;SDS011;28316;49.504;8.526;2023-03-03T00:26:53;23.73;;;8.00;;
42700;SDS011;28316;49.504;8.526;2023-03-03T00:34:39;25.48;;;9.13;;
42700;SDS011;28316;49.504;8.526;2023-03-03T00:37:22;17.45;;;7.43;;
42700;SDS011;28316;49.504;8.526;2023-03-03T00:39:58;19.17;;;8.48;;
42700;SDS011;28316;49.504;8.526;2023-03-03T00:42:46;28.58;;;9.32;;
42700;SDS011;28316;49.504;8.526;2023-03-03T00:51:00;25.52;;;8.85;;
42700;SDS011;28316;49.504;8.526;2023-03-03T00:53:46;19.02;;;8.50;;
42700;SDS011;28316;49.504;8.526;2023-03-03T00:56:12;22.73;;;8.70;;
42700;SDS011;28316;49.504;8.526;2023-03-03T00:58:38;20.88;;;9.15;;
42700;SDS011;28316;49.504;8.526;2023-03-03T01:01:04;20.58;;;8.02;;
42700;SDS011;28316;49.504;8.526;2023-03-03T01:03:30;20.17;;;6.22;;
42700;SDS011;28316;49.504;8.526;2023-03-03T01:05:56;20.25;;;8.15;;
42700;SDS011;28316;49.504;8.526;2023-03-03T01:08:22;16.05;;;7.57;;
42700;SDS011;28316;49.504;8.526;2023-03-03T01:10:49;15.90;;;7.93;;
42700;SDS011;28316;49.504;8.526;2023-03-03T01:13:27;17.75;;;8.88;;
42700;SDS011;28316;49.504;8.526;2023-03-03T01:15:57;24.58;;;7.97;;
42700;SDS011;28316;49.504;8.526;2023-03-03T01:18:25;26.20;;;10.18;;
42700;SDS011;28316;49.504;8.526;2023-03-03T01:20:51;15.98;;;7.65;;
42700;SDS011;28316;49.504;8.526;2023-03-03T01:23:17;22.52;;;8.57;;
42700;SDS011;28316;49.504;8.526;2023-03-03T01:25:43;22.13;;;8.85;;
42700;SDS011;28316;49.504;8.526;2023-03-03T01:28:09;18.48;;;9.63;;
42700;SDS011;28316;49.504;8.526;2023-03-03T01:30:35;15.88;;;7.07;;
42700;SDS011;28316;49.504;8.526;2023-03-03T01:33:01;15.48;;;6.55;;
42700;SDS011;28316;49.504;8.526;2023-03-03T01:35:27;15.25;;;7.88;;
42700;SDS011;28316;49.504;8.526;2023-03-03T01:37:54;14.55;;;8.52;;
42700;SDS011;28316;49.504;8.526;2023-03-03T01:40:25;18.15;;;8.70;;
42700;SDS011;28316;49.504;8.526;2023-03-03T01:42:54;21.80;;;7.88;;
42700;SDS011;28316;49.504;8.526;2023-03-03T01:51:04;26.20;;;9.00;;
42700;SDS011;28316;49.504;8.526;2023-03-03T01:53:40;25.40;;;8.75;;
42700;SDS011;28316;49.504;8.526;2023-03-03T01:56:16;13.93;;;6.82;;
42700;SDS011;28316;49.504;8.526;2023-03-03T01:59:17;23.17;;;8.95;;
42700;SDS011;28316;49.504;8.526;2023-03-03T02:01:44;14.60;;;6.57;;
42700;SDS011;28316;49.504;8.526;2023-03-03T02:04:12;20.50;;;7.85;;
42700;SDS011;28316;49.504;8.526;2023-03-03T02:06:39;15.13;;;7.57;;
42700;SDS011;28316;49.504;8.526;2023-03-03T02:11:58;12.27;;;6.10;;
42700;SDS011;28316;49.504;8.526;2023-03-03T02:14:29;17.70;;;8.43;;
42700;SDS011;28316;49.504;8.526;2023-03-03T02:16:55;18.02;;;8.45;;
42700;SDS011;28316;49.504;8.526;2023-03-03T02:19:36;18.90;;;9.25;;
42700;SDS011;28316;49.504;8.526;2023-03-03T02:22:25;17.08;;;8.07;;
42700;SDS011;28316;49.504;8.526;2023-03-03T02:25:12;18.27;;;8.48;;
42700;SDS011;28316;49.504;8.526;2023-03-03T02:27:44;15.70;;;6.55;;
42700;SDS011;28316;49.504;8.526;2023-03-03T02:30:13;18.67;;;8.35;;
42700;SDS011;28316;49.504;8.526;2023-03-03T02:32:43;15.80;;;6.28;;
42700;SDS011;28316;49.504;8.526;2023-03-03T02:38:09;22.63;;;9.23;;
42700;SDS011;28316;49.504;8.526;2023-03-03T02:40:42;17.02;;;7.38;;
42700;SDS011;28316;49.504;8.526;2023-03-03T02:43:55;13.63;;;5.95;;
42700;SDS011;28316;49.504;8.526;2023-03-03T02:46:33;17.13;;;6.07;;
42700;SDS011;28316;49.504;8.526;2023-03-03T02:49:05;18.75;;;9.68;;
42700;SDS011;28316;49.504;8.526;2023-03-03T02:51:34;26.25;;;9.10;;
42700;SDS011;28316;49.504;8.526;2023-03-03T02:54:01;14.32;;;7.63;;
42700;SDS011;28316;49.504;8.526;2023-03-03T02:56:27;18.55;;;6.13;;
42700;SDS011;28316;49.504;8.526;2023-03-03T02:58:53;14.70;;;6.63;;
42700;SDS011;28316;49.504;8.526;2023-03-03T03:01:19;15.15;;;6.70;;
42700;SDS011;28316;49.504;8.526;2023-03-03T03:03:45;11.35;;;5.70;;
42700;SDS011;28316;49.504;8.526;2023-03-03T03:06:11;11.18;;;6.60;;
42700;SDS011;28316;49.504;8.526;2023-03-03T03:08:37;19.75;;;7.75;;
42700;SDS011;28316;49.504;8.526;2023-03-03T03:11:03;16.95;;;7.68;;
42700;SDS011;28316;49.504;8.526;2023-03-03T03:13:30;12.20;;;5.82;;
42700;SDS011;28316;49.504;8.526;2023-03-03T03:15:55;8.45;;;4.75;;
42700;SDS011;28316;49.504;8.526;2023-03-03T03:18:21;28.00;;;5.97;;
42700;SDS011;28316;49.504;8.526;2023-03-03T03:20:47;9.60;;;5.22;;
42700;SDS011;28316;49.504;8.526;2023-03-03T03:23:13;15.40;;;5.60;;
42700;SDS011;28316;49.504;8.526;2023-03-03T03:25:39;11.90;;;6.03;;
42700;SDS011;28316;49.504;8.526;2023-03-03T03:28:13;9.63;;;6.55;;
42700;SDS011;28316;49.504;8.526;2023-03-03T03:30:41;11.00;;;5.32;;
42700;SDS011;28316;49.504;8.526;2023-03-03T03:33:08;9.82;;;6.47;;
42700;SDS011;28316;49.504;8.526;2023-03-03T03:35:34;11.65;;;6.68;;
42700;SDS011;28316;49.504;8.526;2023-03-03T03:38:01;12.38;;;5.13;;
42700;SDS011;28316;49.504;8.526;2023-03-03T03:40:27;9.95;;;4.10;;
42700;SDS011;28316;49.504;8.526;2023-03-03T03:42:53;6.50;;;3.03;;
42700;SDS011;28316;49.504;8.526;2023-03-03T03:45:20;10.70;;;4.32;;
42700;SDS011;28316;49.504;8.526;2023-03-03T03:47:46;10.75;;;3.83;;
42700;SDS011;28316;49.504;8.526;2023-03-03T03:50:12;8.95;;;3.95;;
42700;SDS011;28316;49.504;8.526;2023-03-03T03:52:38;9.10;;;4.95;;
42700;SDS011;28316;49.504;8.526;2023-03-03T03:55:04;9.18;;;4.03;;
42700;SDS011;28316;49.504;8.526;2023-03-03T03:57:31;6.32;;;4.00;;
42700;SDS011;28316;49.504;8.526;2023-03-03T03:59:57;4.93;;;3.40;;
42700;SDS011;28316;49.504;8.526;2023-03-03T04:02:22;8.00;;;4.53;;
42700;SDS011;28316;49.504;8.526;2023-03-03T04:04:48;13.35;;;4.95;;
42700;SDS011;28316;49.504;8.526;2023-03-03T04:07:14;12.80;;;4.25;;
42700;SDS011;28316;49.504;8.526;2023-03-03T04:09:40;4.53;;;2.75;;
42700;SDS011;28316;49.504;8.526;2023-03-03T04:12:05;6.03;;;2.88;;
42700;SDS011;28316;49.504;8.526;2023-03-03T04:14:31;10.18;;;4.65;;
42700;SDS011;28316;49.504;8.526;2023-03-03T04:16:57;7.13;;;3.30;;
42700;SDS011;28316;49.504;8.526;2023-03-03T04:19:23;7.57;;;3.63;;
42700;SDS011;28316;49.504;8.526;2023-03-03T04:21:48;7.55;;;3.38;;
42700;SDS011;28316;49.504;8.526;2023-03-03T04:24:15;10.23;;;4.18;;
42700;SDS011;28316;49.504;8.526;2023-03-03T04:26:43;6.80;;;3.92;;
42700;SDS011;28316;49.504;8.526;2023-03-03T04:29:09;9.23;;;4.57;;
42700;SDS011;28316;49.504;8.526;2023-03-03T04:31:35;8.95;;;3.40;;
42700;SDS011;28316;49.504;8.526;2023-03-03T04:34:01;5.38;;;3.03;;
42700;SDS011;28316;49.504;8.526;2023-03-03T04:36:26;6.88;;;3.70;;
42700;SDS011;28316;49.504;8.526;2023-03-03T04:38:52;8.88;;;4.35;;
42700;SDS011;28316;49.504;8.526;2023-03-03T04:41:18;13.23;;;4.88;;
42700;SDS011;28316;49.504;8.526;2023-03-03T04:43:44;7.97;;;3.45;;
42700;SDS011;28316;49.504;8.526;2023-03-03T04:46:10;15.57;;;3.63;;
42700;SDS011;28316;49.504;8.526;2023-03-03T04:48:35;3.80;;;2.60;;
42700;SDS011;28316;49.504;8.526;2023-03-03T04:51:02;8.02;;;3.22;;
42700;SDS011;28316;49.504;8.526;2023-03-03T04:53:28;10.45;;;4.03;;
42700;SDS011;28316;49.504;8.526;2023-03-03T04:55:54;6.13;;;3.95;;
42700;SDS011;28316;49.504;8.526;2023-03-03T04:58:20;15.93;;;5.63;;
42700;SDS011;28316;49.504;8.526;2023-03-03T05:00:46;8.27;;;3.42;;
42700;SDS011;28316;49.504;8.526;2023-03-03T05:03:17;5.75;;;3.70;;
42700;SDS011;28316;49.504;8.526;2023-03-03T05:05:45;6.78;;;3.65;;
42700;SDS011;28316;49.504;8.526;2023-03-03T05:08:12;12.57;;;2.95;;
42700;SDS011;28316;49.504;8.526;2023-03-03T05:10:38;17.13;;;4.15;;
42700;SDS011;28316;49.504;8.526;2023-03-03T05:13:04;14.55;;;4.55;;
42700;SDS011;28316;49.504;8.526;2023-03-03T05:15:31;8.05;;;3.25;;
42700;SDS011;28316;49.504;8.526;2023-03-03T05:17:57;8.85;;;3.90;;
42700;SDS011;28316;49.504;8.526;2023-03-03T05:20:23;11.38;;;4.68;;
42700;SDS011;28316;49.504;8.526;2023-03-03T05:22:49;10.57;;;5.65;;
42700;SDS011;28316;49.504;8.526;2023-03-03T05:25:15;12.13;;;4.53;;
42700;SDS011;28316;49.504;8.526;2023-03-03T05:27:41;9.15;;;4.57;;
42700;SDS011;28316;49.504;8.526;2023-03-03T05:30:08;10.27;;;4.32;;
42700;SDS011;28316;49.504;8.526;2023-03-03T05:32:35;8.75;;;4.60;;
42700;SDS011;28316;49.504;8.526;2023-03-03T05:35:02;14.95;;;5.78;;
42700;SDS011;28316;49.504;8.526;2023-03-03T05:37:29;8.23;;;3.15;;
42700;SDS011;28316;49.504;8.526;2023-03-03T05:39:55;8.27;;;3.45;;
42700;SDS011;28316;49.504;8.526;2023-03-03T05:42:20;8.68;;;4.75;;
42700;SDS011;28316;49.504;8.526;2023-03-03T05:44:46;9.38;;;3.63;;
42700;SDS011;28316;49.504;8.526;2023-03-03T05:47:12;14.82;;;4.93;;
42700;SDS011;28316;49.504;8.526;2023-03-03T05:49:38;12.00;;;5.38;;
42700;SDS011;28316;49.504;8.526;2023-03-03T05:52:03;10.55;;;4.80;;
42700;SDS011;28316;49.504;8.526;2023-03-03T05:54:29;10.25;;;4.50;;
42700;SDS011;28316;49.504;8.526;2023-03-03T05:56:56;12.90;;;6.60;;
42700;SDS011;28316;49.504;8.526;2023-03-03T05:59:22;8.55;;;5.57;;
42700;SDS011;28316;49.504;8.526;2023-03-03T06:01:49;14.30;;;6.57;;
42700;SDS011;28316;49.504;8.526;2023-03-03T06:04:14;47.50;;;19.73;;
42700;SDS011;28316;49.504;8.526;2023-03-03T06:06:40;20.40;;;8.35;;
42700;SDS011;28316;49.504;8.526;2023-03-03T06:09:06;12.85;;;6.47;;
42700;SDS011;28316;49.504;8.526;2023-03-03T06:11:32;20.80;;;4.97;;
42700;SDS011;28316;49.504;8.526;2023-03-03T06:13:58;5.65;;;3.55;;
42700;SDS011;28316;49.504;8.526;2023-03-03T06:16:24;8.40;;;4.32;;
42700;SDS011;28316;49.504;8.526;2023-03-03T06:18:50;14.88;;;5.90;;
42700;SDS011;28316;49.504;8.526;2023-03-03T06:21:16;10.57;;;4.30;;
42700;SDS011;28316;49.504;8.526;2023-03-03T06:23:41;8.05;;;5.18;;
42700;SDS011;28316;49.504;8.526;2023-03-03T06:26:07;9.93;;;5.45;;
42700;SDS011;28316;49.504;8.526;2023-03-03T06:28:33;10.80;;;5.15;;
42700;SDS011;28316;49.504;8.526;2023-03-03T06:30:59;16.00;;;6.63;;
42700;SDS011;28316;49.504;8.526;2023-03-03T06:33:25;10.60;;;5.80;;
42700;SDS011;28316;49.504;8.526;2023-03-03T06:35:51;13.70;;;5.53;;
42700;SDS011;28316;49.504;8.526;2023-03-03T06:38:18;7.25;;;4.15;;
42700;SDS011;28316;49.504;8.526;2023-03-03T06:40:44;14.30;;;5.70;;
42700;SDS011;28316;49.504;8.526;2023-03-03T06:43:11;10.15;;;4.85;;
42700;SDS011;28316;49.504;8.526;2023-03-03T06:45:38;16.27;;;6.55;;
42700;SDS011;28316;49.504;8.526;2023-03-03T06:48:04;18.50;;;7.60;;
42700;SDS011;28316;49.504;8.526;2023-03-03T06:50:30;10.23;;;6.35;;
42700;SDS011;28316;49.504;8.526;2023-03-03T06:53:01;14.23;;;6.15;;
42700;SDS011;28316;49.504;8.526;2023-03-03T06:55:41;7.32;;;5.13;;
42700;SDS011;28316;49.504;8.526;2023-03-03T06:58:21;16.33;;;6.43;;
42700;SDS011;28316;49.504;8.526;2023-03-03T07:00:57;14.07;;;5.50;;
42700;SDS011;28316;49.504;8.526;2023-03-03T07:03:26;15.40;;;6.72;;
42700;SDS011;28316;49.504;8.526;2023-03-03T07:05:58;12.38;;;6.80;;
42700;SDS011;28316;49.504;8.526;2023-03-03T07:08:25;17.77;;;7.75;;
42700;SDS011;28316;49.504;8.526;2023-03-03T07:10:55;13.57;;;5.22;;
42700;SDS011;28316;49.504;8.526;2023-03-03T07:13:32;12.68;;;6.75;;
42700;SDS011;28316;49.504;8.526;2023-03-03T07:15:59;16.90;;;5.85;;
42700;SDS011;28316;49.504;8.526;2023-03-03T07:18:47;18.83;;;7.97;;
42700;SDS011;28316;49.504;8.526;2023-03-03T07:21:17;13.48;;;6.25;;
42700;SDS011;28316;49.504;8.526;2023-03-03T07:23:57;21.83;;;7.15;;
42700;SDS011;28316;49.504;8.526;2023-03-03T07:26:27;11.40;;;7.30;;
42700;SDS011;28316;49.504;8.526;2023-03-03T07:29:01;9.88;;;6.97;;
42700;SDS011;28316;49.504;8.526;2023-03-03T07:31:45;14.88;;;5.78;;
42700;SDS011;28316;49.504;8.526;2023-03-03T07:34:14;40.63;;;7.35;;
42700;SDS011;28316;49.504;8.526;2023-03-03T07:36:46;13.38;;;6.13;;
42700;SDS011;28316;49.504;8.526;2023-03-03T07:39:29;16.83;;;8.30;;
42700;SDS011;28316;49.504;8.526;2023-03-03T07:42:02;13.73;;;6.93;;
42700;SDS011;28316;49.504;8.526;2023-03-03T07:44:43;19.02;;;6.63;;
42700;SDS011;28316;49.504;8.526;2023-03-03T07:49:53;20.70;;;7.35;;
42700;SDS011;28316;49.504;8.526;2023-03-03T07:52:38;9.40;;;5.75;;
42700;SDS011;28316;49.504;8.526;2023-03-03T07:58:14;20.05;;;8.55;;
42700;SDS011;28316;49.504;8.526;2023-03-03T08:03:50;12.80;;;6.90;;
42700;SDS011;28316;49.504;8.526;2023-03-03T08:06:36;15.68;;;7.00;;
42700;SDS011;28316;49.504;8.526;2023-03-03T08:11:36;14.18;;;6.85;;
42700;SDS011;28316;49.504;8.526;2023-03-03T08:14:15;16.45;;;8.13;;
42700;SDS011;28316;49.504;8.526;2023-03-03T08:16:55;16.33;;;9.98;;
42700;SDS011;28316;49.504;8.526;2023-03-03T08:19:22;16.50;;;7.60;;
42700;SDS011;28316;49.504;8.526;2023-03-03T08:21:48;12.20;;;6.20;;
42700;SDS011;28316;49.504;8.526;2023-03-03T08:24:15;20.35;;;9.25;;
42700;SDS011;28316;49.504;8.526;2023-03-03T08:26:40;19.73;;;8.35;;
42700;SDS011;28316;49.504;8.526;2023-03-03T08:29:06;19.33;;;7.93;;
42700;SDS011;28316;49.504;8.526;2023-03-03T08:31:32;16.98;;;7.88;;
42700;SDS011;28316;49.504;8.526;2023-03-03T08:33:57;19.65;;;8.82;;
42700;SDS011;28316;49.504;8.526;2023-03-03T08:36:24;15.73;;;7.60;;
42700;SDS011;28316;49.504;8.526;2023-03-03T08:38:50;15.00;;;7.28;;
42700;SDS011;28316;49.504;8.526;2023-03-03T08:41:15;22.15;;;10.23;;
42700;SDS011;28316;49.504;8.526;2023-03-03T08:43:41;19.58;;;8.98;;
42700;SDS011;28316;49.504;8.526;2023-03-03T08:46:09;19.95;;;8.98;;
42700;SDS011;28316;49.504;8.526;2023-03-03T08:48:36;20.95;;;7.88;;
42700;SDS011;28316;49.504;8.526;2023-03-03T08:51:02;21.30;;;9.27;;
42700;SDS011;28316;49.504;8.526;2023-03-03T08:53:28;17.85;;;8.85;;
42700;SDS011;28316;49.504;8.526;2023-03-03T08:55:57;14.25;;;7.32;;
42700;SDS011;28316;49.504;8.526;2023-03-03T08:58:23;19.95;;;8.63;;
42700;SDS011;28316;49.504;8.526;2023-03-03T09:00:49;20.20;;;9.02;;
42700;SDS011;28316;49.504;8.526;2023-03-03T09:03:15;20.83;;;8.73;;
42700;SDS011;28316;49.504;8.526;2023-03-03T09:05:40;16.73;;;7.75;;
42700;SDS011;28316;49.504;8.526;2023-03-03T09:08:09;18.50;;;9.50;;
42700;SDS011;28316;49.504;8.526;2023-03-03T09:10:35;18.75;;;9.30;;
42700;SDS011;28316;49.504;8.526;2023-03-03T09:13:02;15.80;;;7.88;;
42700;SDS011;28316;49.504;8.526;2023-03-03T09:15:36;17.63;;;7.78;;
42700;SDS011;28316;49.504;8.526;2023-03-03T09:18:10;24.20;;;9.15;;
42700;SDS011;28316;49.504;8.526;2023-03-03T09:31:42;16.17;;;8.27;;
42700;SDS011;28316;49.504;8.526;2023-03-03T09:43:06;19.35;;;8.68;;
42700;SDS011;28316;49.504;8.526;2023-03-03T09:45:43;18.45;;;8.10;;
42700;SDS011;28316;49.504;8.526;2023-03-03T09:51:30;19.73;;;9.07;;
42700;SDS011;28316;49.504;8.526;2023-03-03T10:06:31;22.02;;;8.38;;
42700;SDS011;28316;49.504;8.526;2023-03-03T10:09:09;16.70;;;7.72;;
42700;SDS011;28316;49.504;8.526;2023-03-03T10:15:15;18.05;;;9.80;;
42700;SDS011;28316;49.504;8.526;2023-03-03T10:33:11;22.60;;;8.60;;
42700;SDS011;28316;49.504;8.526;2023-03-03T10:41:10;22.08;;;9.57;;
42700;SDS011;28316;49.504;8.526;2023-03-03T10:44:00;23.77;;;9.85;;
42700;SDS011;28316;49.504;8.526;2023-03-03T10:46:45;22.40;;;9.38;;
42700;SDS011;28316;49.504;8.526;2023-03-03T10:52:45;24.08;;;7.95;;
42700;SDS011;28316;49.504;8.526;2023-03-03T11:01:05;23.80;;;9.80;;
42700;SDS011;28316;49.504;8.526;2023-03-03T11:09:29;21.63;;;8.55;;
42700;SDS011;28316;49.504;8.526;2023-03-03T11:12:41;26.90;;;10.50;;
42700;SDS011;28316;49.504;8.526;2023-03-03T11:15:36;19.10;;;8.63;;
42700;SDS011;28316;49.504;8.526;2023-03-03T11:18:34;21.02;;;7.47;;
42700;SDS011;28316;49.504;8.526;2023-03-03T11:33:14;19.65;;;9.27;;
42700;SDS011;28316;49.504;8.526;2023-03-03T11:35:57;21.38;;;9.32;;
42700;SDS011;28316;49.504;8.526;2023-03-03T11:38:46;22.75;;;9.27;;
42700;SDS011;28316;49.504;8.526;2023-03-03T11:41:30;22.15;;;8.65;;
42700;SDS011;28316;49.504;8.526;2023-03-03T11:44:19;22.13;;;8.57;;
42700;SDS011;28316;49.504;8.526;2023-03-03T11:49:59;23.63;;;8.70;;
42700;SDS011;28316;49.504;8.526;2023-03-03T11:56:24;19.58;;;8.25;;
42700;SDS011;28316;49.504;8.526;2023-03-03T12:02:22;19.38;;;8.85;;
42700;SDS011;28316;49.504;8.526;2023-03-03T12:08:22;23.58;;;8.38;;
42700;SDS011;28316;49.504;8.526;2023-03-03T12:11:27;22.08;;;8.90;;
42700;SDS011;28316;49.504;8.526;2023-03-03T12:15:18;21.98;;;8.52;;
42700;SDS011;28316;49.504;8.526;2023-03-03T12:20:30;17.77;;;8.50;;
42700;SDS011;28316;49.504;8.526;2023-03-03T12:23:25;20.65;;;7.68;;
42700;SDS011;28316;49.504;8.526;2023-03-03T12:26:34;20.92;;;9.15;;
42700;SDS011;28316;49.504;8.526;2023-03-03T12:30:01;20.10;;;8.27;;
42700;SDS011;28316;49.504;8.526;2023-03-03T12:33:02;20.00;;;7.55;;
42700;SDS011;28316;49.504;8.526;2023-03-03T12:39:05;19.00;;;7.32;;
42700;SDS011;28316;49.504;8.526;2023-03-03T13:12:40;21.17;;;6.78;;
42700;SDS011;28316;49.504;8.526;2023-03-03T13:17:59;16.27;;;7.13;;
42700;SDS011;28316;49.504;8.526;2023-03-03T13:26:35;17.73;;;6.93;;
42700;SDS011;28316;49.504;8.526;2023-03-03T13:29:25;14.90;;;6.68;;
42700;SDS011;28316;49.504;8.526;2023-03-03T13:32:00;16.17;;;7.05;;
42700;SDS011;28316;49.504;8.526;2023-03-03T13:37:28;18.77;;;7.47;;
42700;SDS011;28316;49.504;8.526;2023-03-03T13:40:24;16.58;;;6.97;;
42700;SDS011;28316;49.504;8.526;2023-03-03T13:45:58;15.93;;;6.88;;
42700;SDS011;28316;49.504;8.526;2023-03-03T13:48:54;17.63;;;6.82;;
42700;SDS011;28316;49.504;8.526;2023-03-03T13:51:38;18.25;;;6.90;;
42700;SDS011;28316;49.504;8.526;2023-03-03T13:58:15;17.70;;;7.95;;
42700;SDS011;28316;49.504;8.526;2023-03-03T14:04:04;18.40;;;7.90;;
42700;SDS011;28316;49.504;8.526;2023-03-03T14:06:39;17.27;;;6.40;;
42700;SDS011;28316;49.504;8.526;2023-03-03T14:09:21;19.73;;;7.95;;
42700;SDS011;28316;49.504;8.526;2023-03-03T14:20:46;22.58;;;7.78;;
42700;SDS011;28316;49.504;8.526;2023-03-03T14:23:26;12.85;;;6.18;;
42700;SDS011;28316;49.504;8.526;2023-03-03T14:26:11;16.92;;;7.28;;
42700;SDS011;28316;49.504;8.526;2023-03-03T14:28:41;17.55;;;7.18;;
42700;SDS011;28316;49.504;8.526;2023-03-03T14:31:14;14.20;;;6.72;;
42700;SDS011;28316;49.504;8.526;2023-03-03T14:34:40;21.58;;;6.13;;
42700;SDS011;28316;49.504;8.526;2023-03-03T14:37:20;16.05;;;6.85;;
42700;SDS011;28316;49.504;8.526;2023-03-03T14:40:17;20.27;;;7.28;;
42700;SDS011;28316;49.504;8.526;2023-03-03T14:45:32;16.95;;;6.88;;
42700;SDS011;28316;49.504;8.526;2023-03-03T14:50:45;13.00;;;5.55;;
42700;SDS011;28316;49.504;8.526;2023-03-03T14:53:41;14.10;;;6.10;;
42700;SDS011;28316;49.504;8.526;2023-03-03T14:56:22;17.33;;;6.15;;
42700;SDS011;28316;49.504;8.526;2023-03-03T14:58:51;14.73;;;6.40;;
42700;SDS011;28316;49.504;8.526;2023-03-03T15:01:36;19.83;;;6.05;;
42700;SDS011;28316;49.504;8.526;2023-03-03T15:06:44;20.52;;;6.97;;
42700;SDS011;28316;49.504;8.526;2023-03-03T15:09:31;16.50;;;5.95;;
42700;SDS011;28316;49.504;8.526;2023-03-03T15:11:59;13.38;;;6.28;;
42700;SDS011;28316;49.504;8.526;2023-03-03T15:14:34;18.35;;;6.28;;
42700;SDS011;28316;49.504;8.526;2023-03-03T15:17:18;11.73;;;5.63;;
42700;SDS011;28316;49.504;8.526;2023-03-03T15:20:08;16.52;;;5.38;;
42700;SDS011;28316;49.504;8.526;2023-03-03T15:23:06;10.50;;;4.85;;
42700;SDS011;28316;49.504;8.526;2023-03-03T15:34:17;13.60;;;5.53;;
42700;SDS011;28316;49.504;8.526;2023-03-03T15:36:56;16.42;;;5.15;;
42700;SDS011;28316;49.504;8.526;2023-03-03T15:39:48;14.32;;;5.80;;
42700;SDS011;28316;49.504;8.526;2023-03-03T15:42:43;10.73;;;5.22;;
42700;SDS011;28316;49.504;8.526;2023-03-03T15:45:35;14.68;;;5.43;;
42700;SDS011;28316;49.504;8.526;2023-03-03T15:48:31;12.82;;;5.03;;
42700;SDS011;28316;49.504;8.526;2023-03-03T15:51:24;13.20;;;5.32;;
42700;SDS011;28316;49.504;8.526;2023-03-03T16:01:00;14.15;;;5.45;;
42700;SDS011;28316;49.504;8.526;2023-03-03T16:03:37;14.30;;;4.72;;
42700;SDS011;28316;49.504;8.526;2023-03-03T16:12:31;8.95;;;4.68;;
42700;SDS011;28316;49.504;8.526;2023-03-03T16:15:20;15.02;;;5.72;;
42700;SDS011;28316;49.504;8.526;2023-03-03T16:23:46;13.20;;;4.65;;
42700;SDS011;28316;49.504;8.526;2023-03-03T16:26:23;11.52;;;4.97;;
42700;SDS011;28316;49.504;8.526;2023-03-03T16:29:22;11.07;;;3.95;;
42700;SDS011;28316;49.504;8.526;2023-03-03T16:32:14;11.63;;;4.18;;
42700;SDS011;28316;49.504;8.526;2023-03-03T16:35:02;10.27;;;3.90;;
42700;SDS011;28316;49.504;8.526;2023-03-03T16:37:53;9.15;;;3.58;;
42700;SDS011;28316;49.504;8.526;2023-03-03T16:40:31;10.35;;;4.13;;
42700;SDS011;28316;49.504;8.526;2023-03-03T16:43:21;10.57;;;3.97;;
42700;SDS011;28316;49.504;8.526;2023-03-03T16:49:15;11.80;;;3.55;;
42700;SDS011;28316;49.504;8.526;2023-03-03T16:52:07;6.20;;;3.03;;
42700;SDS011;28316;49.504;8.526;2023-03-03T16:54:53;10.20;;;4.13;;
42700;SDS011;28316;49.504;8.526;2023-03-03T16:57:30;13.57;;;4.47;;
42700;SDS011;28316;49.504;8.526;2023-03-03T17:00:29;9.30;;;3.90;;
42700;SDS011;28316;49.504;8.526;2023-03-03T17:15:06;13.13;;;5.38;;
42700;SDS011;28316;49.504;8.526;2023-03-03T17:21:00;16.88;;;5.05;;
42700;SDS011;28316;49.504;8.526;2023-03-03T17:35:13;13.32;;;5.05;;
42700;SDS011;28316;49.504;8.526;2023-03-03T17:38:10;15.60;;;5.55;;
42700;SDS011;28316;49.504;8.526;2023-03-03T17:41:00;18.38;;;6.03;;
42700;SDS011;28316;49.504;8.526;2023-03-03T17:43:44;11.85;;;4.15;;
42700;SDS011;28316;49.504;8.526;2023-03-03T17:46:52;20.95;;;5.68;;
42700;SDS011;28316;49.504;8.526;2023-03-03T17:56:09;10.82;;;4.65;;
42700;SDS011;28316;49.504;8.526;2023-03-03T18:02:06;10.52;;;4.43;;
42700;SDS011;28316;49.504;8.526;2023-03-03T18:11:14;14.10;;;5.32;;
42700;SDS011;28316;49.504;8.526;2023-03-03T18:14:05;8.10;;;3.50;;
42700;SDS011;28316;49.504;8.526;2023-03-03T18:17:09;12.80;;;4.97;;
42700;SDS011;28316;49.504;8.526;2023-03-03T18:28:52;9.30;;;3.67;;
42700;SDS011;28316;49.504;8.526;2023-03-03T18:31:45;7.18;;;3.67;;
42700;SDS011;28316;49.504;8.526;2023-03-03T18:37:48;7.70;;;3.72;;
42700;SDS011;28316;49.504;8.526;2023-03-03T18:50:42;7.40;;;3.22;;
42700;SDS011;28316;49.504;8.526;2023-03-03T18:53:20;4.43;;;2.53;;
42700;SDS011;28316;49.504;8.526;2023-03-03T18:55:59;7.85;;;2.75;;
42700;SDS011;28316;49.504;8.526;2023-03-03T19:04:10;13.85;;;4.25;;
42700;SDS011;28316;49.504;8.526;2023-03-03T19:09:18;7.05;;;3.45;;
42700;SDS011;28316;49.504;8.526;2023-03-03T19:12:40;11.98;;;3.20;;
42700;SDS011;28316;49.504;8.526;2023-03-03T19:18:02;7.72;;;3.85;;
42700;SDS011;28316;49.504;8.526;2023-03-03T19:28:59;12.25;;;3.95;;
42700;SDS011;28316;49.504;8.526;2023-03-03T19:46:45;11.73;;;4.60;;
42700;SDS011;28316;49.504;8.526;2023-03-03T19:52:40;8.40;;;3.13;;
42700;SDS011;28316;49.504;8.526;2023-03-03T20:04:15;11.45;;;3.30;;
42700;SDS011;28316;49.504;8.526;2023-03-03T20:10:03;8.50;;;3.65;;
42700;SDS011;28316;49.504;8.526;2023-03-03T20:16:20;9.05;;;4.78;;
42700;SDS011;28316;49.504;8.526;2023-03-03T20:19:20;9.40;;;3.53;;
42700;SDS011;28316;49.504;8.526;2023-03-03T20:22:10;9.75;;;4.53;;
42700;SDS011;28316;49.504;8.526;2023-03-03T20:25:26;11.48;;;4.50;;
42700;SDS011;28316;49.504;8.526;2023-03-03T20:36:32;7.60;;;3.50;;
42700;SDS011;28316;49.504;8.526;2023-03-03T20:50:59;10.27;;;3.65;;
42700;SDS011;28316;49.504;8.526;2023-03-03T21:02:36;8.88;;;3.60;;
42700;SDS011;28316;49.504;8.526;2023-03-03T21:05:33;12.25;;;4.05;;
42700;SDS011;28316;49.504;8.526;2023-03-03T21:08:00;10.75;;;4.82;;
42700;SDS011;28316;49.504;8.526;2023-03-03T21:10:32;11.25;;;4.30;;
42700;SDS011;28316;49.504;8.526;2023-03-03T21:13:24;16.40;;;4.47;;
42700;SDS011;28316;49.504;8.526;2023-03-03T21:15:54;11.05;;;3.47;;
42700;SDS011;28316;49.504;8.526;2023-03-03T21:18:27;14.05;;;4.75;;
42700;SDS011;28316;49.504;8.526;2023-03-03T21:20:53;9.73;;;4.18;;
42700;SDS011;28316;49.504;8.526;2023-03-03T21:23:18;9.57;;;3.88;;
42700;SDS011;28316;49.504;8.526;2023-03-03T21:25:52;9.50;;;4.47;;
42700;SDS011;28316;49.504;8.526;2023-03-03T21:28:20;8.15;;;3.55;;
42700;SDS011;28316;49.504;8.526;2023-03-03T21:36:15;15.05;;;4.88;;
42700;SDS011;28316;49.504;8.526;2023-03-03T21:39:04;16.50;;;4.55;;
42700;SDS011;28316;49.504;8.526;2023-03-03T21:42:11;9.73;;;4.43;;
42700;SDS011;28316;49.504;8.526;2023-03-03T21:44:44;15.02;;;5.90;;
42700;SDS011;28316;49.504;8.526;2023-03-03T21:47:15;15.88;;;6.03;;
42700;SDS011;28316;49.504;8.526;2023-03-03T21:49:46;16.00;;;6.80;;
42700;SDS011;28316;49.504;8.526;2023-03-03T21:52:16;19.58;;;7.93;;
42700;SDS011;28316;49.504;8.526;2023-03-03T21:54:45;15.15;;;5.93;;
42700;SDS011;28316;49.504;8.526;2023-03-03T21:57:13;31.52;;;9.05;;